Time;durP1;ratioP1;P1;durP2;ratioP2;P2;SDS_P1;SDS_P2;PMS_P1;PMS_P2;Temp;Humidity;BMP_temperature;BMP_pressure;BME280_temperature;BME280_humidity;BME280_pressure;Samples;Min_cycle;Max_cycle;Signal;HPM_P1;HPM_P2
2022/04/19 00:00:44;;;;;;;;;;;;;;;18.53;59.90;99579.44;2081540;28;19943;-55
2022/04/19 00:01:45;;;;;;;;;;;;;;;18.53;60.01;99581.31;2082419;28;19963;-55
2022/04/19 00:02:45;;;;;;;;;;;;;;;18.54;59.92;99572.09;2081728;28;20367;-56
2022/04/19 00:03:46;;;;;;;;;;;;;;;18.53;59.95;99586.78;2083339;28;20215;-55
2022/04/19 00:04:46;;;;;;;;;;;;;;;18.53;59.95;99575.88;2097519;28;19926;-55
2022/04/19 00:05:47;;;;;;;;;;;;;;;18.52;60.01;99575.00;2097699;28;20003;-55
2022/04/19 00:06:47;;;;;;;;;;;;;;;18.51;59.95;99573.28;2084323;28;20007;-55
2022/04/19 00:07:48;;;;;;;;;;;;;;;18.53;59.84;99570.41;2079994;28;20513;-55
2022/04/19 00:08:50;;;;;;;;;;;;;;;18.52;59.89;99568.66;2076234;28;19917;-55
2022/04/19 00:09:50;;;;;;;;;;;;;;;18.51;59.91;99566.97;2078516;28;19968;-55
2022/04/19 00:10:50;;;;;;;;;;;;;;;18.51;59.90;99564.25;2084530;28;19917;-55
2022/04/19 00:11:51;;;;;;;;;;;;;;;18.50;60.02;99560.66;2079333;28;19916;-55
2022/04/19 00:12:52;;;;;;;;;;;;;;;18.50;59.91;99559.81;2080876;28;20371;-54
2022/04/19 00:13:52;;;;;;;;;;;;;;;18.50;59.90;99559.81;2083423;28;19924;-56
2022/04/19 00:14:52;;;;;;;;;;;;;;;18.51;59.96;99556.06;2075353;28;20304;-55
2022/04/19 00:15:55;;;;;;;;;;;;;;;18.49;59.97;99552.63;2079991;28;19946;-57
2022/04/19 00:16:55;;;;;;;;;;;;;;;18.50;60.01;99554.34;2081670;28;19921;-54
2022/04/19 00:17:56;;;;;;;;;;;;;;;18.49;59.93;99547.16;2081504;28;19928;-56
2022/04/19 00:18:56;;;;;;;;;;;;;;;18.49;60.08;99548.00;2081958;28;19924;-56
2022/04/19 00:19:57;;;;;;;;;;;;;;;18.50;60.03;99548.91;2083545;28;19916;-56
2022/04/19 00:20:57;;;;;;;;;;;;;;;18.49;60.06;99555.34;2080444;28;20221;-56
2022/04/19 00:21:57;;;;;;;;;;;;;;;18.50;59.92;99548.91;2083855;28;19924;-55
2022/04/19 00:22:58;;;;;;;;;;;;;;;18.47;59.98;99544.63;2076864;28;19909;-55
2022/04/19 00:23:58;;;;;;;;;;;;;;;18.48;59.96;99540.00;2078168;28;20281;-58
2022/04/19 00:24:59;;;;;;;;;;;;;;;18.48;59.93;99545.47;2082153;28;19920;-57
2022/04/19 00:25:59;;;;;;;;;;;;;;;18.48;60.01;99546.31;2076403;28;20378;-57
2022/04/19 00:27:00;;;;;;;;;;;;;;;18.48;59.89;99545.47;2083022;28;19936;-56
2022/04/19 00:28:00;;;;;;;;;;;;;;;18.48;59.97;99540.00;2080685;28;20469;-56
2022/04/19 00:29:00;;;;;;;;;;;;;;;18.48;59.98;99538.13;2079956;28;19923;-55
2022/04/19 00:30:02;;;;;;;;;;;;;;;18.47;59.91;99541.88;2081712;28;19913;-55
2022/04/19 00:31:05;;;;;;;;;;;;;;;18.48;59.88;99546.31;2081770;28;19920;-55
2022/04/19 00:32:05;;;;;;;;;;;;;;;18.48;59.97;99542.72;2076370;28;20362;-55
2022/04/19 00:33:07;;;;;;;;;;;;;;;18.49;59.98;99541.69;2078171;28;20132;-54
2022/04/19 00:34:07;;;;;;;;;;;;;;;18.49;59.94;99536.25;2083691;28;19916;-54
2022/04/19 00:35:08;;;;;;;;;;;;;;;18.48;59.91;99532.66;2080478;28;19912;-55
2022/04/19 00:36:08;;;;;;;;;;;;;;;18.48;59.96;99535.41;2081036;28;20263;-56
2022/04/19 00:37:09;;;;;;;;;;;;;;;18.48;59.97;99529.09;2081646;28;20167;-56
2022/04/19 00:38:09;;;;;;;;;;;;;;;18.48;59.97;99534.53;2079101;28;19912;-55
2022/04/19 00:39:09;;;;;;;;;;;;;;;18.47;59.83;99535.53;2084742;28;19924;-55
2022/04/19 00:40:10;;;;;;;;;;;;;;;18.47;59.92;99538.28;2081964;28;19939;-55
2022/04/19 00:41:12;;;;;;;;;;;;;;;18.47;59.94;99532.81;2076292;28;19913;-56
2022/04/19 00:42:12;;;;;;;;;;;;;;;18.47;59.94;99532.81;2080173;28;19923;-55
2022/04/19 00:43:12;;;;;;;;;;;;;;;18.48;59.98;99540.00;2075644;28;20203;-55
2022/04/19 00:44:13;;;;;;;;;;;;;;;18.47;59.90;99543.72;2082935;28;19921;-55
2022/04/19 00:45:13;;;;;;;;;;;;;;;18.47;59.98;99538.28;2077191;28;19952;-57
2022/04/19 00:46:14;;;;;;;;;;;;;;;18.47;60.00;99538.28;2081612;28;19923;-56
2022/04/19 00:47:15;;;;;;;;;;;;;;;18.45;59.96;99534.84;2079775;28;19939;-55
2022/04/19 00:48:15;;;;;;;;;;;;;;;18.45;60.00;99540.31;2078868;28;19965;-55
2022/04/19 00:49:17;;;;;;;;;;;;;;;18.46;60.00;99542.03;2076653;28;19975;-56
2022/04/19 00:50:17;;;;;;;;;;;;;;;18.46;60.00;99542.88;2081803;28;19955;-56
2022/04/19 00:51:19;;;;;;;;;;;;;;;18.46;59.89;99536.56;2090406;28;19929;-56
2022/04/19 00:52:19;;;;;;;;;;;;;;;18.46;59.96;99542.03;2098437;28;20041;-55
2022/04/19 00:53:22;;;;;;;;;;;;;;;18.45;60.02;99537.56;2081277;28;20323;-56
2022/04/19 00:54:22;;;;;;;;;;;;;;;18.46;59.94;99536.56;2084311;28;19916;-55
2022/04/19 00:55:23;;;;;;;;;;;;;;;18.45;59.99;99541.19;2078971;28;19983;-55
2022/04/19 00:56:23;;;;;;;;;;;;;;;18.45;59.91;99535.72;2082080;28;19999;-56
2022/04/19 00:57:24;;;;;;;;;;;;;;;18.44;59.86;99534.00;2083502;28;19912;-56
2022/04/19 00:58:25;;;;;;;;;;;;;;;18.45;59.98;99532.13;2078308;28;20600;-54
2022/04/19 00:59:25;;;;;;;;;;;;;;;18.45;59.93;99534.84;2084248;28;20939;-56
2022/04/19 01:00:25;;;;;;;;;;;;;;;18.45;59.95;99534.84;2076881;28;19917;-57
2022/04/19 01:01:26;;;;;;;;;;;;;;;18.44;59.97;99534.00;2083217;28;20703;-55
2022/04/19 01:02:26;;;;;;;;;;;;;;;18.45;59.96;99530.25;2083609;28;20575;-55
2022/04/19 01:03:26;;;;;;;;;;;;;;;18.46;59.86;99533.84;2079524;28;20273;-55
2022/04/19 01:04:27;;;;;;;;;;;;;;;18.45;59.95;99535.72;2083612;28;19912;-56
2022/04/19 01:05:27;;;;;;;;;;;;;;;18.45;59.87;99543.91;2083198;28;20285;-55
2022/04/19 01:06:27;;;;;;;;;;;;;;;18.45;59.96;99532.13;2078154;28;20003;-55
2022/04/19 01:07:29;;;;;;;;;;;;;;;18.45;59.95;99529.38;2083631;28;19963;-55
2022/04/19 01:08:30;;;;;;;;;;;;;;;18.45;60.00;99530.25;2082770;28;19952;-55
2022/04/19 01:09:30;;;;;;;;;;;;;;;18.43;59.99;99526.84;2083683;28;19936;-55
2022/04/19 01:10:31;;;;;;;;;;;;;;;18.43;59.93;99522.22;2087713;28;20003;-55
2022/04/19 01:14:09;;;;;;;;;;;;;;;18.43;59.91;99526.84;2083773;28;20223;-55
2022/04/19 01:15:13;;;;;;;;;;;;;;;18.43;59.97;99522.22;2078816;28;19925;-55
2022/04/19 01:16:14;;;;;;;;;;;;;;;18.42;59.96;99522.38;2084596;28;19921;-56
2022/04/19 01:17:14;;;;;;;;;;;;;;;18.42;59.83;99523.25;2081529;28;19967;-55
2022/04/19 01:18:23;;;;;;;;;;;;;;;18.42;59.79;99531.44;2086254;28;20165;-55
2022/04/19 01:19:24;;;;;;;;;;;;;;;18.42;59.96;99517.78;2083811;28;19970;-57
2022/04/19 01:20:27;;;;;;;;;;;;;;;18.42;59.88;99520.53;2082612;28;19917;-56
2022/04/19 01:21:48;;;;;;;;;;;;;;;18.41;59.94;99510.59;2080666;28;19935;-55
2022/04/19 01:22:49;;;;;;;;;;;;;;;18.40;59.84;99511.63;2095830;28;19998;-55
2022/04/19 01:23:50;;;;;;;;;;;;;;;18.42;59.94;99511.47;2097606;28;19920;-55
2022/04/19 01:24:50;;;;;;;;;;;;;;;18.41;60.05;99507.88;2084813;28;19923;-55
2022/04/19 01:25:51;;;;;;;;;;;;;;;18.41;59.92;99504.31;2078285;28;19917;-55
2022/04/19 01:26:55;;;;;;;;;;;;;;;18.41;59.92;99516.06;2083225;28;19913;-56
2022/04/19 01:27:56;;;;;;;;;;;;;;;18.41;59.87;99510.59;2079232;28;20099;-55
2022/04/19 01:28:56;;;;;;;;;;;;;;;18.41;59.88;99507.03;2080058;28;20003;-56
2022/04/19 01:30:00;;;;;;;;;;;;;;;18.42;59.88;99504.16;2085093;28;19962;-55
2022/04/19 01:31:01;;;;;;;;;;;;;;;18.41;59.90;99505.16;2080630;28;19939;-55
2022/04/19 01:32:02;;;;;;;;;;;;;;;18.42;60.00;99504.16;2084430;28;19912;-55
2022/04/19 01:33:03;;;;;;;;;;;;;;;18.41;59.91;99507.88;2085427;28;20321;-55
2022/04/19 01:34:03;;;;;;;;;;;;;;;18.40;59.85;99500.72;2078480;28;19909;-55
2022/04/19 01:35:04;;;;;;;;;;;;;;;18.40;59.90;99503.44;2084495;28;20513;-55
2022/04/19 01:36:05;;;;;;;;;;;;;;;18.40;59.90;99503.44;2076706;28;19917;-55
2022/04/19 01:37:05;;;;;;;;;;;;;;;18.40;59.99;99500.72;2081066;28;19950;-55
2022/04/19 01:38:05;;;;;;;;;;;;;;;18.40;59.98;99500.72;2078591;28;19917;-56
2022/04/19 01:39:07;;;;;;;;;;;;;;;18.40;59.90;99505.34;2079420;28;19923;-55
2022/04/19 01:40:18;;;;;;;;;;;;;;;18.39;59.88;99501.72;2083779;28;20031;-56
2022/04/19 01:41:18;;;;;;;;;;;;;;;18.39;59.98;99504.44;2083629;28;19960;-55
2022/04/19 01:42:18;;;;;;;;;;;;;;;18.39;59.94;99499.00;2078697;28;19955;-55
2022/04/19 01:43:19;;;;;;;;;;;;;;;18.40;59.90;99499.88;2084894;28;19916;-55
2022/04/19 01:44:20;;;;;;;;;;;;;;;18.39;59.84;99496.25;2084828;28;19917;-56
2022/04/19 01:45:24;;;;;;;;;;;;;;;18.38;59.96;99500.03;2080830;28;20247;-55
2022/04/19 01:46:26;;;;;;;;;;;;;;;18.38;59.98;99494.56;2086082;28;19913;-55
2022/04/19 01:47:26;;;;;;;;;;;;;;;18.38;59.90;99497.28;2080666;28;19943;-55
2022/04/19 01:48:27;;;;;;;;;;;;;;;18.38;59.92;99500.03;2084472;28;19924;-55
2022/04/19 01:49:27;;;;;;;;;;;;;;;18.38;59.93;99505.47;2084704;28;19916;-56
2022/04/19 01:50:28;;;;;;;;;;;;;;;18.38;59.87;99496.44;2083446;28;20015;-55
2022/04/19 01:51:28;;;;;;;;;;;;;;;18.38;59.90;99497.28;2085408;28;19954;-55
2022/04/19 01:52:28;;;;;;;;;;;;;;;18.38;59.88;99497.28;2086088;28;19909;-56
2022/04/19 01:53:29;;;;;;;;;;;;;;;18.39;60.00;99498.16;2077407;28;20355;-55
2022/04/19 01:54:30;;;;;;;;;;;;;;;18.39;59.87;99499.00;2078553;28;19955;-55
2022/04/19 01:55:30;;;;;;;;;;;;;;;18.39;59.92;99499.00;2083259;28;19912;-55
2022/04/19 01:56:32;;;;;;;;;;;;;;;18.38;59.85;99502.75;2082405;28;20192;-56
2022/04/19 01:57:33;;;;;;;;;;;;;;;18.39;59.92;99495.41;2084094;28;20074;-55
2022/04/19 01:58:33;;;;;;;;;;;;;;;18.39;59.85;99490.81;2079647;28;20242;-55
2022/04/19 01:59:34;;;;;;;;;;;;;;;18.39;59.77;99492.69;2081779;28;20015;-55
2022/04/19 02:00:34;;;;;;;;;;;;;;;18.39;59.88;99488.06;2082335;28;19920;-55
2022/04/19 02:01:35;;;;;;;;;;;;;;;18.39;59.85;99487.22;2085049;28;19951;-55
2022/04/19 02:02:35;;;;;;;;;;;;;;;18.38;59.85;99480.91;2080942;28;19974;-55
2022/04/19 02:03:36;;;;;;;;;;;;;;;18.38;59.75;99491.00;2097757;28;20524;-56
2022/04/19 02:04:36;;;;;;;;;;;;;;;18.37;59.84;99490.13;2098295;28;19916;-56
2022/04/19 02:05:36;;;;;;;;;;;;;;;18.37;59.91;99487.41;2083278;28;20003;-55
2022/04/19 02:06:37;;;;;;;;;;;;;;;18.36;59.84;99488.41;2085419;28;19916;-55
2022/04/19 02:07:38;;;;;;;;;;;;;;;18.37;59.84;99489.25;2076122;28;19955;-55
2022/04/19 02:08:38;;;;;;;;;;;;;;;18.37;59.90;99489.25;2082424;28;20205;-55
2022/04/19 02:09:38;;;;;;;;;;;;;;;18.36;59.94;99493.84;2076404;28;20019;-55
2022/04/19 02:10:39;;;;;;;;;;;;;;;18.37;59.87;99489.25;2083875;28;19916;-55
2022/04/19 02:11:39;;;;;;;;;;;;;;;18.36;59.93;99490.28;2085969;28;19923;-55
2022/04/19 02:12:39;;;;;;;;;;;;;;;18.36;59.92;99485.69;2083372;28;19966;-55
2022/04/19 02:13:40;;;;;;;;;;;;;;;18.35;59.77;99483.97;2077267;28;19912;-55
2022/04/19 02:14:41;;;;;;;;;;;;;;;18.35;59.88;99481.25;2078934;28;19931;-55
2022/04/19 02:15:43;;;;;;;;;;;;;;;18.35;59.92;99486.72;2082705;28;19916;-54
2022/04/19 02:16:43;;;;;;;;;;;;;;;18.34;59.88;99487.69;2081793;28;19928;-56
2022/04/19 02:17:48;;;;;;;;;;;;;;;18.35;59.76;99486.72;2081722;28;20858;-56
2022/04/19 02:18:48;;;;;;;;;;;;;;;18.36;59.89;99493.00;2083991;28;19927;-55
2022/04/19 02:19:49;;;;;;;;;;;;;;;18.35;59.88;99480.41;2085984;28;19963;-56
2022/04/19 02:20:49;;;;;;;;;;;;;;;18.36;59.75;99476.63;2077479;28;20013;-55
2022/04/19 02:21:49;;;;;;;;;;;;;;;18.36;59.97;99482.94;2082550;28;19960;-55
2022/04/19 02:22:50;;;;;;;;;;;;;;;18.35;59.85;99480.41;2083618;28;19916;-55
2022/04/19 02:23:50;;;;;;;;;;;;;;;18.36;59.80;99471.19;2081528;28;19939;-56
2022/04/19 02:24:50;;;;;;;;;;;;;;;18.36;59.88;99479.38;2082602;28;19917;-56
2022/04/19 02:25:55;;;;;;;;;;;;;;;18.36;59.84;99477.50;2085515;28;19923;-55
2022/04/19 02:26:57;;;;;;;;;;;;;;;18.36;59.89;99473.91;2080418;28;20186;-55
2022/04/19 02:27:57;;;;;;;;;;;;;;;18.36;59.90;99479.38;2085356;28;20396;-56
2022/04/19 02:28:58;;;;;;;;;;;;;;;18.36;59.75;99476.63;2079358;28;19950;-55
2022/04/19 02:30:05;;;;;;;;;;;;;;;18.35;59.77;99474.94;2084312;28;19929;-55
2022/04/19 02:31:05;;;;;;;;;;;;;;;18.36;59.95;99480.22;2080896;28;19916;-56
2022/04/19 02:32:05;;;;;;;;;;;;;;;18.36;59.90;99476.63;2078241;28;19916;-56
2022/04/19 02:33:06;;;;;;;;;;;;;;;18.34;59.83;99482.25;2079679;28;19971;-56
2022/04/19 02:34:06;;;;;;;;;;;;;;;18.35;60.01;99486.72;2078449;28;20024;-56
2022/04/19 02:35:07;;;;;;;;;;;;;;;18.35;59.95;99486.72;2097715;28;19916;-56
2022/04/19 02:36:07;;;;;;;;;;;;;;;18.34;60.05;99479.50;2095179;28;19920;-56
2022/04/19 02:37:08;;;;;;;;;;;;;;;18.34;59.96;99481.41;2085199;28;19963;-55
2022/04/19 02:38:09;;;;;;;;;;;;;;;18.35;59.95;99480.41;2082610;28;20417;-55
2022/04/19 02:39:11;;;;;;;;;;;;;;;18.34;60.02;99479.50;2083563;28;19924;-55
2022/04/19 02:40:11;;;;;;;;;;;;;;;18.32;59.83;99470.63;2076549;28;20751;-56
2022/04/19 02:41:11;;;;;;;;;;;;;;;18.33;59.96;99482.44;2082787;28;20491;-56
2022/04/19 02:42:12;;;;;;;;;;;;;;;18.33;59.86;99474.25;2080430;28;20123;-56
2022/04/19 02:43:13;;;;;;;;;;;;;;;18.33;60.01;99477.81;2081764;28;19939;-55
2022/04/19 02:44:14;;;;;;;;;;;;;;;18.33;59.96;99472.34;2084365;28;20333;-56
2022/04/19 02:45:16;;;;;;;;;;;;;;;18.33;59.87;99464.19;2083650;28;20418;-56
2022/04/19 02:46:17;;;;;;;;;;;;;;;18.33;59.87;99468.78;2080458;28;19917;-56
2022/04/19 02:47:17;;;;;;;;;;;;;;;18.32;59.87;99473.34;2080815;28;19916;-56
2022/04/19 02:48:18;;;;;;;;;;;;;;;18.33;59.92;99477.81;2076271;28;20240;-55
2022/04/19 02:49:19;;;;;;;;;;;;;;;18.32;59.97;99473.34;2081578;28;19916;-56
2022/04/19 02:50:19;;;;;;;;;;;;;;;18.33;59.95;99477.81;2078985;28;19916;-54
2022/04/19 02:51:19;;;;;;;;;;;;;;;18.33;59.81;99475.09;2078932;28;19917;-55
2022/04/19 02:52:20;;;;;;;;;;;;;;;18.34;59.88;99479.50;2080988;28;19908;-55
2022/04/19 02:53:20;;;;;;;;;;;;;;;18.33;59.84;99477.81;2078583;28;20015;-55
2022/04/19 02:54:20;;;;;;;;;;;;;;;18.34;59.87;99478.66;2079382;28;19955;-56
2022/04/19 02:55:21;;;;;;;;;;;;;;;18.33;59.89;99476.97;2082160;28;20330;-55
2022/04/19 02:56:21;;;;;;;;;;;;;;;18.33;59.74;99477.81;2080162;28;19916;-55
2022/04/19 02:57:21;;;;;;;;;;;;;;;18.33;59.87;99477.81;2077092;28;20348;-55
2022/04/19 02:58:25;;;;;;;;;;;;;;;18.34;59.88;99482.25;2081801;28;19916;-54
2022/04/19 02:59:25;;;;;;;;;;;;;;;18.33;59.82;99483.28;2085195;28;20334;-55
2022/04/19 03:00:25;;;;;;;;;;;;;;;18.33;59.79;99488.72;2080138;28;19923;-55
2022/04/19 03:01:26;;;;;;;;;;;;;;;18.33;59.88;99488.72;2085684;28;19916;-55
2022/04/19 03:02:26;;;;;;;;;;;;;;;18.32;59.96;99487.00;2078643;28;19917;-56
2022/04/19 03:03:29;;;;;;;;;;;;;;;18.32;59.82;99481.53;2076432;28;20582;-55
2022/04/19 03:04:30;;;;;;;;;;;;;;;18.32;59.75;99483.41;2084785;28;19916;-55
2022/04/19 03:05:30;;;;;;;;;;;;;;;18.32;59.91;99480.69;2081697;28;19927;-56
2022/04/19 03:06:30;;;;;;;;;;;;;;;18.31;59.84;99484.44;2084914;28;20592;-56
2022/04/19 03:07:31;;;;;;;;;;;;;;;18.31;59.85;99485.31;2082731;28;19920;-56
2022/04/19 03:08:35;;;;;;;;;;;;;;;18.31;59.93;99489.91;2083786;28;19920;-55
2022/04/19 03:09:36;;;;;;;;;;;;;;;18.31;59.93;99493.47;2077149;28;20012;-55
2022/04/19 03:10:36;;;;;;;;;;;;;;;18.29;59.91;99492.78;2083442;28;20628;-55
2022/04/19 03:11:37;;;;;;;;;;;;;;;18.30;59.89;99499.97;2080528;28;20015;-55
2022/04/19 03:12:38;;;;;;;;;;;;;;;18.29;59.80;99497.41;2081911;28;19909;-55
2022/04/19 03:13:38;;;;;;;;;;;;;;;18.32;59.94;99494.34;2082097;28;20338;-55
2022/04/19 03:14:38;;;;;;;;;;;;;;;18.29;59.92;99492.78;2078212;28;19970;-55
2022/04/19 03:15:39;;;;;;;;;;;;;;;18.28;59.94;99488.34;2084796;28;20288;-54
2022/04/19 03:16:39;;;;;;;;;;;;;;;18.30;59.82;99489.06;2082773;28;19928;-55
2022/04/19 03:17:40;;;;;;;;;;;;;;;18.29;59.79;99481.88;2084643;28;19931;-55
2022/04/19 03:18:41;;;;;;;;;;;;;;;18.28;59.78;99480.16;2079886;28;19917;-56
2022/04/19 03:19:42;;;;;;;;;;;;;;;18.28;59.93;99485.63;2080691;28;19927;-55
2022/04/19 03:20:45;;;;;;;;;;;;;;;18.31;59.90;99489.91;2084244;28;20030;-55
2022/04/19 03:21:45;;;;;;;;;;;;;;;18.30;59.89;99489.06;2079949;28;19943;-57
2022/04/19 03:28:01;;;;;;;;;;;;;;;18.28;59.88;99491.09;2081536;28;19925;-55
2022/04/19 03:29:01;;;;;;;;;;;;;;;18.29;59.85;99484.59;2078712;28;20336;-55
2022/04/19 03:30:02;;;;;;;;;;;;;;;18.29;59.78;99490.06;2079713;28;19984;-55
2022/04/19 03:31:03;;;;;;;;;;;;;;;18.28;59.88;99491.09;2078493;28;20366;-56
2022/04/19 03:32:03;;;;;;;;;;;;;;;18.29;59.99;99492.78;2083911;28;19909;-55
2022/04/19 03:33:04;;;;;;;;;;;;;;;18.27;59.77;99492.09;2076980;28;19917;-55
2022/04/19 03:34:05;;;;;;;;;;;;;;;18.28;59.83;99491.09;2083237;28;20029;-55
2022/04/19 03:35:06;;;;;;;;;;;;;;;18.28;59.78;99491.09;2077878;28;20035;-56
2022/04/19 03:36:08;;;;;;;;;;;;;;;18.28;59.79;99490.25;2099456;28;19920;-55
2022/04/19 03:37:09;;;;;;;;;;;;;;;18.27;59.87;99486.63;2093548;28;20341;-55
2022/04/19 03:38:10;;;;;;;;;;;;;;;18.27;59.93;99491.22;2076346;28;19924;-56
2022/04/19 03:39:10;;;;;;;;;;;;;;;18.27;59.89;99485.78;2077002;28;19939;-55
2022/04/19 03:40:11;;;;;;;;;;;;;;;18.26;59.79;99482.19;2082229;28;19970;-55
2022/04/19 03:41:11;;;;;;;;;;;;;;;18.26;59.81;99482.19;2080155;28;19959;-55
2022/04/19 03:42:12;;;;;;;;;;;;;;;18.25;60.01;99488.69;2076594;28;19917;-56
2022/04/19 03:43:12;;;;;;;;;;;;;;;18.26;59.86;99486.81;2075786;28;20081;-56
2022/04/19 03:44:12;;;;;;;;;;;;;;;18.25;59.75;99483.22;2075936;28;19969;-56
2022/04/19 03:45:13;;;;;;;;;;;;;;;18.26;59.90;99487.66;2077281;28;20019;-56
2022/04/19 03:46:13;;;;;;;;;;;;;;;18.25;60.00;99488.69;2077960;28;20151;-55
2022/04/19 03:47:15;;;;;;;;;;;;;;;18.25;59.94;99480.50;2084961;28;19917;-56
2022/04/19 03:48:15;;;;;;;;;;;;;;;18.26;59.95;99484.94;2081661;28;19917;-56
2022/04/19 03:49:16;;;;;;;;;;;;;;;18.26;59.99;99487.66;2081894;28;19923;-55
2022/04/19 03:50:16;;;;;;;;;;;;;;;18.27;59.98;99483.91;2085474;28;19923;-56
2022/04/19 03:51:17;;;;;;;;;;;;;;;18.27;59.93;99485.78;2081690;28;19916;-55
2022/04/19 03:52:17;;;;;;;;;;;;;;;18.27;59.97;99486.63;2084820;28;19971;-55
2022/04/19 03:53:18;;;;;;;;;;;;;;;18.26;59.98;99476.75;2082530;28;19963;-55
2022/04/19 03:54:18;;;;;;;;;;;;;;;18.27;60.00;99478.44;2082637;28;19924;-55
2022/04/19 03:55:19;;;;;;;;;;;;;;;18.27;60.05;99478.44;2085246;28;19916;-55
2022/04/19 03:56:19;;;;;;;;;;;;;;;18.26;59.94;99479.47;2082553;28;19916;-55
2022/04/19 03:57:19;;;;;;;;;;;;;;;18.26;60.00;99475.88;2081475;28;20322;-55
2022/04/19 03:58:20;;;;;;;;;;;;;;;18.27;59.88;99483.03;2080992;28;19913;-55
2022/04/19 03:59:22;;;;;;;;;;;;;;;18.26;60.03;99473.16;2078164;28;19916;-55
2022/04/19 04:00:23;;;;;;;;;;;;;;;18.25;59.94;99469.59;2082755;28;19958;-54
2022/04/19 04:01:23;;;;;;;;;;;;;;;18.25;60.08;99474.16;2090403;28;19916;-55
2022/04/19 04:02:23;;;;;;;;;;;;;;;18.24;60.09;99467.84;2084275;28;19973;-55
2022/04/19 04:03:24;;;;;;;;;;;;;;;18.24;60.12;99465.13;2083219;28;19912;-55
2022/04/19 04:04:30;;;;;;;;;;;;;;;18.24;60.09;99465.13;2081963;28;20628;-55
2022/04/19 04:05:31;;;;;;;;;;;;;;;18.23;60.16;99466.16;2081524;28;19924;-55
2022/04/19 04:06:31;;;;;;;;;;;;;;;18.24;60.12;99473.31;2082990;28;20191;-55
2022/04/19 04:07:33;;;;;;;;;;;;;;;18.24;59.92;99470.59;2081360;28;20354;-55
2022/04/19 04:08:33;;;;;;;;;;;;;;;18.24;60.06;99469.72;2083528;28;20444;-56
2022/04/19 04:09:35;;;;;;;;;;;;;;;18.24;59.99;99467.00;2081524;28;19916;-55
2022/04/19 04:10:35;;;;;;;;;;;;;;;18.23;60.00;99466.16;2080628;28;19915;-55
2022/04/19 04:11:35;;;;;;;;;;;;;;;18.24;60.00;99473.31;2076769;28;19916;-55
2022/04/19 04:12:36;;;;;;;;;;;;;;;18.23;59.91;99471.59;2080953;28;20536;-57
2022/04/19 04:13:36;;;;;;;;;;;;;;;18.23;59.98;99466.16;2076688;28;19917;-55
2022/04/19 04:14:36;;;;;;;;;;;;;;;18.24;59.93;99467.00;2082942;28;20282;-55
2022/04/19 04:15:37;;;;;;;;;;;;;;;18.23;59.80;99470.72;2085471;28;19916;-55
2022/04/19 04:16:37;;;;;;;;;;;;;;;18.23;59.92;99471.59;2078252;28;19925;-55
2022/04/19 04:17:37;;;;;;;;;;;;;;;18.24;59.89;99462.41;2083279;28;19923;-55
2022/04/19 04:18:39;;;;;;;;;;;;;;;18.23;59.81;99471.59;2070801;28;21048;-55
2022/04/19 04:19:40;;;;;;;;;;;;;;;18.23;59.89;99471.59;2082815;28;20267;-55
2022/04/19 04:20:40;;;;;;;;;;;;;;;18.24;59.79;99469.72;2080877;28;20368;-55
2022/04/19 04:21:40;;;;;;;;;;;;;;;18.25;59.86;99471.44;2084170;28;20326;-54
2022/04/19 04:22:41;;;;;;;;;;;;;;;18.24;59.73;99472.47;2089507;28;20353;-55
2022/04/19 04:23:41;;;;;;;;;;;;;;;18.23;59.65;99465.28;2081023;28;20024;-55
2022/04/19 04:24:41;;;;;;;;;;;;;;;18.24;59.67;99465.13;2085297;28;19916;-56
2022/04/19 04:25:41;;;;;;;;;;;;;;;18.23;59.79;99463.44;2081678;28;20062;-55
2022/04/19 04:26:42;;;;;;;;;;;;;;;18.24;59.74;99470.59;2081010;28;20352;-55
2022/04/19 04:27:42;;;;;;;;;;;;;;;18.24;59.64;99461.53;2079438;28;20394;-56
2022/04/19 04:28:42;;;;;;;;;;;;;;;18.23;59.68;99459.81;2075527;28;19925;-56
2022/04/19 04:29:43;;;;;;;;;;;;;;;18.23;59.82;99466.16;2084868;28;20341;-56
2022/04/19 04:30:43;;;;;;;;;;;;;;;18.22;59.66;99458.97;2082375;28;19916;-55
2022/04/19 04:31:44;;;;;;;;;;;;;;;18.21;59.62;99465.44;2084941;28;19916;-55
2022/04/19 04:32:44;;;;;;;;;;;;;;;18.21;59.77;99468.19;2081444;28;19964;-55
2022/04/19 04:33:44;;;;;;;;;;;;;;;18.21;59.74;99468.19;2076155;28;19931;-55
2022/04/19 04:34:45;;;;;;;;;;;;;;;18.22;59.79;99469.88;2081504;28;19962;-54
2022/04/19 04:35:45;;;;;;;;;;;;;;;18.20;59.66;99472.78;2082239;28;19916;-56
2022/04/19 04:36:45;;;;;;;;;;;;;;;18.20;59.87;99472.78;2084364;28;20331;-56
2022/04/19 04:37:45;;;;;;;;;;;;;;;18.20;59.88;99471.91;2081649;28;19962;-56
2022/04/19 04:38:46;;;;;;;;;;;;;;;18.20;59.88;99466.44;2085245;28;19916;-56
2022/04/19 04:39:46;;;;;;;;;;;;;;;18.20;59.78;99474.63;2080691;28;19917;-55
2022/04/19 04:40:46;;;;;;;;;;;;;;;18.20;59.80;99469.19;2079140;28;20434;-55
2022/04/19 04:41:47;;;;;;;;;;;;;;;18.19;59.73;99467.47;2086593;28;19998;-55
2022/04/19 04:42:47;;;;;;;;;;;;;;;18.19;59.71;99471.06;2081083;28;20316;-55
2022/04/19 04:43:47;;;;;;;;;;;;;;;18.19;59.79;99472.94;2082684;28;19916;-55
2022/04/19 04:44:48;;;;;;;;;;;;;;;18.19;59.71;99471.06;2082489;28;19916;-56
2022/04/19 04:49:35;;;;;;;;;;;;;;;18.20;59.82;99477.38;2083753;28;21106;-55
2022/04/19 04:49:46;;;;;;;;;;;;;;;18.20;59.68;99477.38;2076759;28;20402;-54
2022/04/19 04:50:46;;;;;;;;;;;;;;;18.20;59.75;99471.91;2082621;28;19908;-54
2022/04/19 04:51:46;;;;;;;;;;;;;;;18.21;59.83;99473.63;2085714;28;19959;-55
2022/04/19 04:52:48;;;;;;;;;;;;;;;18.19;59.78;99476.50;2083374;28;19924;-55
2022/04/19 04:53:48;;;;;;;;;;;;;;;18.19;59.72;99475.66;2081691;28;20007;-55
2022/04/19 04:54:48;;;;;;;;;;;;;;;18.20;59.78;99477.38;2091553;28;19916;-55
2022/04/19 04:55:49;;;;;;;;;;;;;;;18.20;59.71;99480.09;2091477;28;19931;-55
2022/04/19 04:56:49;;;;;;;;;;;;;;;18.19;59.62;99481.13;2087246;28;19924;-56
2022/04/19 04:57:49;;;;;;;;;;;;;;;18.19;59.73;99478.38;2078508;28;19939;-55
2022/04/19 04:58:50;;;;;;;;;;;;;;;18.18;59.67;99480.28;2083724;28;20321;-56
2022/04/19 04:59:50;;;;;;;;;;;;;;;18.17;59.79;99478.53;2083673;28;20023;-56
2022/04/19 05:00:51;;;;;;;;;;;;;;;18.18;59.88;99477.53;2080926;28;19917;-55
2022/04/19 05:01:51;;;;;;;;;;;;;;;18.18;59.78;99479.41;2082998;28;19916;-54
2022/04/19 05:02:51;;;;;;;;;;;;;;;18.18;59.68;99479.41;2083244;28;19956;-54
2022/04/19 05:03:52;;;;;;;;;;;;;;;18.17;59.69;99478.53;2086364;28;19955;-55
2022/04/19 05:04:52;;;;;;;;;;;;;;;18.17;59.68;99472.22;2082356;28;19924;-55
2022/04/19 05:05:53;;;;;;;;;;;;;;;18.17;59.74;99477.69;2082876;28;19920;-55
2022/04/19 05:06:53;;;;;;;;;;;;;;;18.17;59.80;99477.69;2080843;28;19924;-55
2022/04/19 05:07:54;;;;;;;;;;;;;;;18.17;59.82;99477.69;2080074;28;19908;-55
2022/04/19 05:08:54;;;;;;;;;;;;;;;18.16;59.84;99476.84;2084248;28;21003;-57
2022/04/19 05:09:56;;;;;;;;;;;;;;;18.16;59.73;99476.00;2082512;28;19917;-55
2022/04/19 05:10:57;;;;;;;;;;;;;;;18.15;59.79;99482.44;2084011;28;19909;-55
2022/04/19 05:11:57;;;;;;;;;;;;;;;18.16;59.83;99478.72;2082766;28;19912;-55
2022/04/19 05:12:57;;;;;;;;;;;;;;;18.16;59.78;99481.44;2081069;28;19908;-55
2022/04/19 05:13:57;;;;;;;;;;;;;;;18.16;59.71;99481.44;2085503;28;19928;-55
2022/04/19 05:14:58;;;;;;;;;;;;;;;18.16;59.76;99476.00;2099334;28;19918;-55
2022/04/19 05:15:58;;;;;;;;;;;;;;;18.15;59.78;99466.97;2093648;28;20817;-56
2022/04/19 05:16:58;;;;;;;;;;;;;;;18.16;59.87;99467.81;2084945;28;20329;-56
2022/04/19 05:17:59;;;;;;;;;;;;;;;18.16;59.75;99473.25;2080211;28;19917;-56
2022/04/19 05:18:59;;;;;;;;;;;;;;;18.16;59.86;99471.38;2082674;28;20437;-56
2022/04/19 05:20:00;;;;;;;;;;;;;;;18.17;59.70;99477.69;2083767;28;20447;-55
2022/04/19 05:21:00;;;;;;;;;;;;;;;18.16;59.84;99473.25;2084323;28;19943;-55
2022/04/19 05:22:00;;;;;;;;;;;;;;;18.16;59.85;99478.72;2083371;28;19939;-55
2022/04/19 05:23:01;;;;;;;;;;;;;;;18.17;59.70;99483.16;2083860;28;20322;-55
2022/04/19 05:24:01;;;;;;;;;;;;;;;18.17;59.81;99477.69;2085018;28;19958;-55
2022/04/19 05:25:02;;;;;;;;;;;;;;;18.17;59.70;99483.16;2082322;28;19917;-55
2022/04/19 05:26:02;;;;;;;;;;;;;;;18.16;59.81;99481.44;2082834;28;20003;-56
2022/04/19 05:27:02;;;;;;;;;;;;;;;18.16;59.71;99482.28;2082718;28;19916;-54
2022/04/19 05:28:03;;;;;;;;;;;;;;;18.17;59.72;99480.41;2083423;28;19917;-55